Time;durP1;ratioP1;P1;durP2;ratioP2;P2;SDS_P1;SDS_P2;PMS_P1;PMS_P2;Temp;Humidity;BMP_temperature;BMP_pressure;BME280_temperature;BME280_humidity;BME280_pressure;Samples;Min_cycle;Max_cycle;Signal;HPM_P1;HPM_P2
2022/04/21 00:01:07;;;;;;;;;;;;;;;-143.90;100.00;54994.06;2088708;28;20019;-65
2022/04/21 00:02:28;;;;;;;;;;;;;;;-143.90;100.00;55006.00;2087235;28;19921;-63
2022/04/21 00:03:48;;;;;;;;;;;;;;;-143.90;100.00;54988.13;2088363;28;20399;-64
2022/04/21 00:05:09;;;;;;;;;;;;;;;-143.90;100.00;54982.16;2088975;28;21024;-66
2022/04/21 00:06:30;;;;;;;;;;;;;;;-143.90;100.00;54992.09;2080057;28;19921;-65
2022/04/21 00:07:51;;;;;;;;;;;;;;;-143.90;100.00;54996.06;2085974;28;19931;-66
2022/04/21 00:09:11;;;;;;;;;;;;;;;-143.90;100.00;54992.09;2088056;28;20361;-65
2022/04/21 00:10:32;;;;;;;;;;;;;;;-143.90;100.00;55047.69;2087662;28;19963;-64
2022/04/21 00:11:52;;;;;;;;;;;;;;;-143.90;100.00;54990.09;2089670;28;19926;-65
2022/04/21 00:13:13;;;;;;;;;;;;;;;-143.90;100.00;55015.91;2089305;28;19999;-64
2022/04/21 00:14:34;;;;;;;;;;;;;;;-143.90;100.00;54976.19;2089385;28;19919;-65
2022/04/21 00:15:54;;;;;;;;;;;;;;;-143.90;100.00;55007.97;2089065;28;19925;-65
2022/04/21 00:17:15;;;;;;;;;;;;;;;-143.90;100.00;55027.81;2088320;28;19924;-65
2022/04/21 00:18:36;;;;;;;;;;;;;;;-143.90;100.00;55017.91;2089489;28;20585;-66
2022/04/21 00:19:57;;;;;;;;;;;;;;;-143.90;100.00;54980.19;2088733;28;20175;-66
2022/04/21 00:21:17;;;;;;;;;;;;;;;-143.90;100.00;54952.38;2088865;28;19956;-66
2022/04/21 00:24:17;;;;;;;;;;;;;;;-143.90;100.00;55023.84;2088215;28;19920;-66
2022/04/21 00:25:38;;;;;;;;;;;;;;;-143.90;100.00;54988.13;2088402;28;19921;-65
2022/04/21 00:26:59;;;;;;;;;;;;;;;-143.90;100.00;55027.81;2089313;28;21017;-66
2022/04/21 00:28:20;;;;;;;;;;;;;;;-143.90;100.00;54996.06;2088807;28;20364;-65
2022/04/21 00:29:41;;;;;;;;;;;;;;;-143.90;100.00;54992.09;2090209;28;19921;-65
2022/04/21 00:31:03;;;;;;;;;;;;;;;-143.90;100.00;55015.91;2088498;28;19921;-66
2022/04/21 00:32:24;;;;;;;;;;;;;;;-143.90;100.00;55004.00;2089437;28;20390;-66
2022/04/21 00:33:44;;;;;;;;;;;;;;;-143.90;100.00;55013.94;2089448;28;19917;-66
2022/04/21 00:35:06;;;;;;;;;;;;;;;-143.90;100.00;54980.19;2090672;28;19948;-65
2022/04/21 00:36:26;;;;;;;;;;;;;;;-143.90;100.00;55021.88;2089716;28;20590;-65
2022/04/21 00:37:52;;;;;;;;;;;;;;;-143.90;100.00;55006.00;2088078;28;19928;-65
2022/04/21 00:39:12;;;;;;;;;;;;;;;-143.90;100.00;54992.09;2086127;28;20752;-64
2022/04/21 00:40:33;;;;;;;;;;;;;;;-143.90;100.00;55007.97;2088982;28;19920;-65
2022/04/21 00:41:57;;;;;;;;;;;;;;;-143.90;100.00;55007.97;2090693;28;19924;-65
2022/04/21 00:43:18;;;;;;;;;;;;;;;-143.90;100.00;54988.13;2090443;28;20425;-65
2022/04/21 00:44:39;;;;;;;;;;;;;;;-143.90;100.00;54980.19;2087828;28;20020;-64
2022/04/21 00:46:00;;;;;;;;;;;;;;;-143.90;100.00;55063.56;2088713;28;19928;-64
2022/04/21 00:47:20;;;;;;;;;;;;;;;-143.90;100.00;55011.94;2079990;28;19967;-65
2022/04/21 00:48:41;;;;;;;;;;;;;;;-143.90;100.00;55000.03;2084664;28;19952;-62
2022/04/21 00:50:02;;;;;;;;;;;;;;;-143.90;100.00;54976.19;2088553;28;19997;-64
2022/04/21 00:51:23;;;;;;;;;;;;;;;-143.90;100.00;54972.22;2088611;28;19978;-64
2022/04/21 00:52:43;;;;;;;;;;;;;;;-143.90;100.00;55023.84;2087005;28;20043;-65
2022/04/21 00:54:04;;;;;;;;;;;;;;;-143.90;100.00;55011.94;2088344;28;19921;-65
2022/04/21 00:55:25;;;;;;;;;;;;;;;-143.90;100.00;55015.91;2087581;28;19920;-65
2022/04/21 00:56:46;;;;;;;;;;;;;;;-143.90;100.00;55006.00;2088999;28;19934;-65
2022/04/21 00:58:07;;;;;;;;;;;;;;;-143.90;100.00;54988.13;2087256;28;19917;-65
2022/04/21 00:59:28;;;;;;;;;;;;;;;-143.90;100.00;54996.06;2087875;28;19925;-65
2022/04/21 01:00:48;;;;;;;;;;;;;;;-143.90;100.00;55025.84;2088100;28;19931;-64
2022/04/21 01:03:48;;;;;;;;;;;;;;;-143.90;100.00;55015.91;2080401;28;19971;-64
2022/04/21 01:05:10;;;;;;;;;;;;;;;-143.90;100.00;55007.97;2089106;28;19952;-64
2022/04/21 01:06:30;;;;;;;;;;;;;;;-143.90;100.00;55007.97;2089134;28;20754;-65
2022/04/21 01:07:51;;;;;;;;;;;;;;;-143.90;100.00;55031.78;2088317;28;20056;-65
2022/04/21 01:09:12;;;;;;;;;;;;;;;-143.90;100.00;55006.00;2088646;28;19963;-65
2022/04/21 01:10:33;;;;;;;;;;;;;;;-143.90;100.00;55043.72;2089353;28;19921;-65
2022/04/21 01:11:54;;;;;;;;;;;;;;;-143.90;100.00;54992.09;2087703;28;19976;-65
2022/04/21 01:13:14;;;;;;;;;;;;;;;-143.90;100.00;54998.03;2087467;28;19971;-65
2022/04/21 01:14:38;;;;;;;;;;;;;;;-143.90;100.00;54980.19;2088429;28;19916;-65
2022/04/21 01:15:59;;;;;;;;;;;;;;;-143.90;100.00;54998.03;2088482;28;19920;-66
2022/04/21 01:17:30;;;;;;;;;;;;;;;-143.90;100.00;55037.75;2087905;28;19925;-65
2022/04/21 01:18:51;;;;;;;;;;;;;;;-143.90;100.00;54992.09;2088421;28;19940;-65
2022/04/21 01:20:16;;;;;;;;;;;;;;;-143.90;100.00;55007.97;2088246;28;20537;-64
2022/04/21 01:21:36;;;;;;;;;;;;;;;-143.90;100.00;54996.06;2086894;28;21184;-65
2022/04/21 01:22:57;;;;;;;;;;;;;;;-143.90;100.00;55055.63;2088102;28;19924;-63
2022/04/21 01:24:18;;;;;;;;;;;;;;;-143.90;100.00;55000.03;2087344;28;19920;-64
2022/04/21 01:25:39;;;;;;;;;;;;;;;-143.90;100.00;55019.88;2088565;28;19924;-65
2022/04/21 01:27:00;;;;;;;;;;;;;;;-143.90;100.00;54996.06;2087369;28;20347;-65
2022/04/21 01:28:20;;;;;;;;;;;;;;;-143.90;100.00;54982.16;2087599;28;19921;-65
2022/04/21 01:29:43;;;;;;;;;;;;;;;-143.90;100.00;54980.19;2087239;28;20020;-65
2022/04/21 01:31:03;;;;;;;;;;;;;;;-143.90;100.00;55011.94;2088010;28;19921;-64
2022/04/21 01:32:24;;;;;;;;;;;;;;;-143.90;100.00;55041.72;2087571;28;19920;-66
2022/04/21 01:33:45;;;;;;;;;;;;;;;-143.90;100.00;55023.84;2088605;28;20015;-65
2022/04/21 01:35:06;;;;;;;;;;;;;;;-143.90;100.00;54992.09;2088223;28;19927;-65
2022/04/21 01:36:27;;;;;;;;;;;;;;;-143.90;100.00;54980.19;2082581;27;20321;-65
2022/04/21 01:41:09;;;;;;;;;;;;;;;-143.90;100.00;54996.06;2089298;28;19920;-65
2022/04/21 01:42:29;;;;;;;;;;;;;;;-143.90;100.00;54980.19;2086857;28;19920;-65
2022/04/21 01:43:50;;;;;;;;;;;;;;;-143.90;100.00;54988.13;2087610;28;20384;-65
2022/04/21 01:45:11;;;;;;;;;;;;;;;-143.90;100.00;54984.16;2088124;28;19920;-64
2022/04/21 01:46:31;;;;;;;;;;;;;;;-143.90;100.00;54964.28;2087482;28;19926;-65
2022/04/21 01:47:52;;;;;;;;;;;;;;;-143.90;100.00;54990.09;2087732;28;19920;-64
2022/04/21 01:49:13;;;;;;;;;;;;;;;-143.90;100.00;55031.78;2087607;28;19921;-65
2022/04/21 01:50:33;;;;;;;;;;;;;;;-143.90;100.00;55002.00;2088135;28;19924;-63
2022/04/21 01:51:54;;;;;;;;;;;;;;;-143.90;100.00;55007.97;2090097;28;20024;-67
2022/04/21 01:53:15;;;;;;;;;;;;;;;-143.90;100.00;54992.09;2089298;28;19927;-65
2022/04/21 01:54:36;;;;;;;;;;;;;;;-143.90;100.00;54984.16;2087307;28;20027;-65
2022/04/21 01:55:57;;;;;;;;;;;;;;;-143.90;100.00;55027.81;2088789;28;19920;-65
2022/04/21 01:57:19;;;;;;;;;;;;;;;-143.90;100.00;54984.16;2086864;28;19964;-65
2022/04/21 01:58:41;;;;;;;;;;;;;;;-143.90;100.00;55015.91;2087677;28;19921;-66
2022/04/21 02:00:01;;;;;;;;;;;;;;;-143.90;100.00;55027.81;2088629;28;20019;-66
2022/04/21 02:01:24;;;;;;;;;;;;;;;-143.90;100.00;54976.19;2087759;28;20011;-66
2022/04/21 02:02:45;;;;;;;;;;;;;;;-143.90;100.00;55027.81;2086859;28;20472;-66
2022/04/21 02:04:06;;;;;;;;;;;;;;;-143.90;100.00;55011.94;2088570;28;19927;-65
2022/04/21 02:05:26;;;;;;;;;;;;;;;-143.90;100.00;54998.03;2089024;28;19920;-65
2022/04/21 02:06:47;;;;;;;;;;;;;;;-143.90;100.00;54972.22;2089998;28;19925;-64
2022/04/21 02:08:08;;;;;;;;;;;;;;;-143.90;100.00;54986.13;2090850;28;19930;-65
2022/04/21 02:09:28;;;;;;;;;;;;;;;-143.90;100.00;55015.91;2092323;28;20463;-63
2022/04/21 02:10:49;;;;;;;;;;;;;;;-143.90;100.00;55011.94;2089519;28;20460;-65
2022/04/21 02:12:11;;;;;;;;;;;;;;;-143.90;100.00;54998.03;2089831;28;19921;-64
2022/04/21 02:13:31;;;;;;;;;;;;;;;-143.90;100.00;55011.94;2088060;28;20291;-65
2022/04/21 02:14:52;;;;;;;;;;;;;;;-143.90;100.00;54996.06;2089509;28;19979;-65
2022/04/21 02:16:13;;;;;;;;;;;;;;;-143.90;100.00;55015.91;2089731;28;20526;-64
2022/04/21 02:17:35;;;;;;;;;;;;;;;-143.90;100.00;54984.16;2090162;28;19928;-66
2022/04/21 02:18:55;;;;;;;;;;;;;;;-143.90;100.00;54972.22;2089910;28;20286;-65
2022/04/21 02:20:16;;;;;;;;;;;;;;;-143.90;100.00;55000.03;2090157;28;20412;-65
2022/04/21 02:21:37;;;;;;;;;;;;;;;-143.90;100.00;55013.94;2090422;28;19979;-64
2022/04/21 02:22:58;;;;;;;;;;;;;;;-143.90;100.00;54988.13;2089522;28;19932;-65
2022/04/21 02:24:18;;;;;;;;;;;;;;;-143.90;100.00;55019.88;2087630;28;19921;-65
2022/04/21 02:25:39;;;;;;;;;;;;;;;-143.90;100.00;55041.72;2090274;28;19920;-66
2022/04/21 02:26:59;;;;;;;;;;;;;;;-143.90;100.00;55027.81;2089937;28;20497;-64
2022/04/21 02:28:22;;;;;;;;;;;;;;;-143.90;100.00;55000.03;2088503;28;20387;-66
2022/04/21 02:29:42;;;;;;;;;;;;;;;-143.90;100.00;55021.88;2090364;28;19920;-64
2022/04/21 02:31:03;;;;;;;;;;;;;;;-143.90;100.00;54966.28;2088427;28;20364;-66
2022/04/21 02:32:24;;;;;;;;;;;;;;;-143.90;100.00;55027.81;2088736;28;19936;-65
2022/04/21 02:33:44;;;;;;;;;;;;;;;-143.90;100.00;55027.81;2089546;28;20723;-65
2022/04/21 02:35:06;;;;;;;;;;;;;;;-143.90;100.00;55000.03;2088989;28;20489;-65
2022/04/21 02:36:27;;;;;;;;;;;;;;;-143.90;100.00;55059.59;2083577;28;21177;-65
2022/04/21 02:37:48;;;;;;;;;;;;;;;-143.90;100.00;55019.88;2083258;28;20040;-65
2022/04/21 02:39:08;;;;;;;;;;;;;;;-143.90;100.00;55035.78;2089720;28;19924;-67
2022/04/21 02:40:29;;;;;;;;;;;;;;;-143.90;100.00;54968.25;2087903;28;19963;-66
2022/04/21 02:41:50;;;;;;;;;;;;;;;-143.90;100.00;55027.81;2088419;28;19924;-65
2022/04/21 02:43:11;;;;;;;;;;;;;;;-143.90;100.00;54984.16;2089928;28;19921;-65
2022/04/21 02:44:32;;;;;;;;;;;;;;;-143.90;100.00;54990.09;2090023;28;19924;-65
2022/04/21 02:45:52;;;;;;;;;;;;;;;-143.90;100.00;55023.84;2089540;28;20020;-65
2022/04/21 02:47:14;;;;;;;;;;;;;;;-143.90;100.00;55043.72;2087480;28;19921;-65
2022/04/21 02:48:35;;;;;;;;;;;;;;;-143.90;100.00;55029.81;2089729;28;19921;-66
2022/04/21 02:49:55;;;;;;;;;;;;;;;-143.90;100.00;54984.16;2088353;28;20026;-64
2022/04/21 02:51:16;;;;;;;;;;;;;;;-143.90;100.00;55015.91;2087935;28;19925;-65
2022/04/21 02:52:37;;;;;;;;;;;;;;;-143.90;100.00;55023.84;2089194;28;19928;-65
2022/04/21 02:57:20;;;;;;;;;;;;;;;-143.90;100.00;55031.78;2088991;28;19970;-65
2022/04/21 02:58:40;;;;;;;;;;;;;;;-143.90;100.00;55031.78;2085734;28;20918;-65
2022/04/21 03:00:03;;;;;;;;;;;;;;;-143.90;100.00;54984.16;2087172;28;19978;-65
2022/04/21 03:01:23;;;;;;;;;;;;;;;-143.90;100.00;55007.97;2086560;28;19921;-64
2022/04/21 03:02:44;;;;;;;;;;;;;;;-143.90;100.00;55043.72;2089527;28;20039;-66
2022/04/21 03:04:05;;;;;;;;;;;;;;;-143.90;100.00;55031.78;2079957;28;19952;-65
2022/04/21 03:05:26;;;;;;;;;;;;;;;-143.90;100.00;54992.09;2084061;28;19921;-65
2022/04/21 03:06:46;;;;;;;;;;;;;;;-143.90;100.00;55019.88;2088400;28;19925;-65
2022/04/21 03:08:07;;;;;;;;;;;;;;;-143.90;100.00;55015.91;2089194;28;19971;-65
2022/04/21 03:09:29;;;;;;;;;;;;;;;-143.90;100.00;55047.69;2089926;28;19927;-66
2022/04/21 03:10:50;;;;;;;;;;;;;;;-143.90;100.00;55031.78;2091009;28;19956;-66
2022/04/21 03:12:11;;;;;;;;;;;;;;;-143.90;100.00;55015.91;2088910;28;19966;-65
2022/04/21 03:13:32;;;;;;;;;;;;;;;-143.90;100.00;55015.91;2089067;28;20011;-65
2022/04/21 03:14:53;;;;;;;;;;;;;;;-143.90;100.00;55011.94;2087886;28;19921;-66
2022/04/21 03:16:13;;;;;;;;;;;;;;;-143.90;100.00;55011.94;2089444;28;19920;-65
2022/04/21 03:17:34;;;;;;;;;;;;;;;-143.90;100.00;55059.59;2088938;28;19928;-65
2022/04/21 03:18:55;;;;;;;;;;;;;;;-143.90;100.00;55000.03;2089033;28;19920;-65
2022/04/21 03:25:15;;;;;;;;;;;;;;;-143.90;100.00;55007.97;2088808;28;20461;-65
2022/04/21 03:26:35;;;;;;;;;;;;;;;-143.90;100.00;55011.94;2087660;28;20032;-65
2022/04/21 03:27:56;;;;;;;;;;;;;;;-143.90;100.00;55019.88;2088360;28;19920;-64
2022/04/21 03:29:17;;;;;;;;;;;;;;;-143.90;100.00;55000.03;2090220;28;20224;-65
2022/04/21 03:30:38;;;;;;;;;;;;;;;-143.90;100.00;55015.91;2089728;28;20019;-64
2022/04/21 03:31:59;;;;;;;;;;;;;;;-143.90;100.00;55015.91;2085355;28;19979;-65
2022/04/21 03:33:20;;;;;;;;;;;;;;;-143.90;100.00;55039.75;2088137;28;19920;-65
2022/04/21 03:34:41;;;;;;;;;;;;;;;-143.90;100.00;55041.72;2091246;28;20364;-65
2022/04/21 03:36:02;;;;;;;;;;;;;;;-143.90;100.00;54980.19;2088920;28;19963;-64
2022/04/21 03:37:23;;;;;;;;;;;;;;;-143.90;100.00;55011.94;2088950;28;19924;-65
2022/04/21 03:38:44;;;;;;;;;;;;;;;-143.90;100.00;54996.06;2088007;28;20299;-65
2022/04/21 03:40:05;;;;;;;;;;;;;;;-143.90;100.00;55027.81;2089386;28;20525;-66
2022/04/21 03:41:25;;;;;;;;;;;;;;;-143.90;100.00;55000.03;2090390;28;19956;-66
2022/04/21 03:42:46;;;;;;;;;;;;;;;-143.90;100.00;55007.97;2089508;28;19921;-65
2022/04/21 03:44:07;;;;;;;;;;;;;;;-143.90;100.00;55011.94;2087951;28;19917;-65
2022/04/21 03:45:29;;;;;;;;;;;;;;;-143.90;100.00;55002.00;2087797;28;19921;-65
2022/04/21 03:46:50;;;;;;;;;;;;;;;-143.90;100.00;54982.16;2087262;28;19980;-65
2022/04/21 03:48:11;;;;;;;;;;;;;;;-143.90;100.00;55007.97;2080273;28;20008;-65
2022/04/21 03:49:32;;;;;;;;;;;;;;;-143.90;100.00;55011.94;2087609;28;20047;-65
2022/04/21 03:50:53;;;;;;;;;;;;;;;-143.90;100.00;55007.97;2088780;28;19920;-65
2022/04/21 03:52:14;;;;;;;;;;;;;;;-143.90;100.00;55004.00;2090042;28;19920;-64
2022/04/21 03:53:34;;;;;;;;;;;;;;;-143.90;100.00;55019.88;2088853;28;20384;-65
2022/04/21 03:54:55;;;;;;;;;;;;;;;-143.90;100.00;55015.91;2089628;28;19928;-65
2022/04/21 03:56:15;;;;;;;;;;;;;;;-143.90;100.00;55007.97;2087974;28;19917;-65
2022/04/21 03:57:36;;;;;;;;;;;;;;;-143.90;100.00;55007.97;2088850;28;19925;-65
2022/04/21 03:58:57;;;;;;;;;;;;;;;-143.90;100.00;55019.88;2089004;28;19931;-65
2022/04/21 04:00:18;;;;;;;;;;;;;;;-143.90;100.00;55047.69;2089320;28;19990;-62
2022/04/21 04:01:40;;;;;;;;;;;;;;;-143.90;100.00;55007.97;2089016;28;19982;-64
2022/04/21 04:03:01;;;;;;;;;;;;;;;-143.90;100.00;54988.13;2088147;28;19920;-65
2022/04/21 04:04:21;;;;;;;;;;;;;;;-143.90;100.00;55004.00;2088567;28;19970;-64
2022/04/21 04:05:42;;;;;;;;;;;;;;;-143.90;100.00;55007.97;2089857;28;20008;-65
2022/04/21 04:12:02;;;;;;;;;;;;;;;-143.90;100.00;55011.94;2088195;28;19944;-65
2022/04/21 04:13:23;;;;;;;;;;;;;;;-143.90;100.00;55039.75;2088398;28;19947;-65
2022/04/21 04:14:44;;;;;;;;;;;;;;;-143.90;100.00;55002.00;2088326;28;19921;-65
2022/04/21 04:16:04;;;;;;;;;;;;;;;-143.90;100.00;55007.97;2088089;28;19928;-65
2022/04/21 04:17:26;;;;;;;;;;;;;;;-143.90;100.00;55053.63;2087142;28;19924;-64
2022/04/21 04:18:46;;;;;;;;;;;;;;;-143.90;100.00;55031.78;2085715;28;20010;-65
2022/04/21 04:20:07;;;;;;;;;;;;;;;-143.90;100.00;55031.78;2088619;28;19928;-64
2022/04/21 04:21:28;;;;;;;;;;;;;;;-143.90;100.00;55004.00;2080930;28;20489;-64
2022/04/21 04:22:49;;;;;;;;;;;;;;;-143.90;100.00;55031.78;2084359;28;19921;-63
2022/04/21 04:24:09;;;;;;;;;;;;;;;-143.90;100.00;55004.00;2087580;28;19998;-65
2022/04/21 04:25:30;;;;;;;;;;;;;;;-143.90;100.00;55009.97;2086347;28;20087;-65
2022/04/21 04:26:51;;;;;;;;;;;;;;;-143.90;100.00;55045.69;2086901;28;19925;-64
2022/04/21 04:28:12;;;;;;;;;;;;;;;-143.90;100.00;55029.81;2088841;28;19920;-64
2022/04/21 04:29:33;;;;;;;;;;;;;;;-143.90;100.00;54996.06;2088768;28;20284;-64
2022/04/21 04:30:54;;;;;;;;;;;;;;;-143.90;100.00;55006.00;2086773;28;19931;-66
2022/04/21 04:32:15;;;;;;;;;;;;;;;-143.90;100.00;55019.88;2087325;28;20011;-64
2022/04/21 04:33:35;;;;;;;;;;;;;;;-143.90;100.00;55031.78;2087519;28;19923;-65
2022/04/21 04:34:56;;;;;;;;;;;;;;;-143.90;100.00;54994.06;2086872;28;19920;-65
2022/04/21 04:36:17;;;;;;;;;;;;;;;-143.90;100.00;54996.06;2085697;28;20569;-65
2022/04/21 04:37:38;;;;;;;;;;;;;;;-143.90;100.00;55047.69;2087226;28;19929;-64
2022/04/21 04:38:59;;;;;;;;;;;;;;;-143.90;100.00;55004.00;2088267;28;20295;-64
2022/04/21 04:40:19;;;;;;;;;;;;;;;-143.90;100.00;55019.88;2086694;28;19991;-65
2022/04/21 04:43:22;;;;;;;;;;;;;;;-143.90;100.00;55043.72;2088119;28;19959;-65
2022/04/21 04:44:45;;;;;;;;;;;;;;;-143.90;100.00;55011.94;2075387;28;19920;-64
2022/04/21 04:47:45;;;;;;;;;;;;;;;-143.90;100.00;55011.94;2087694;28;20003;-65
2022/04/21 04:49:07;;;;;;;;;;;;;;;-143.90;100.00;55004.00;2087343;28;19928;-63
2022/04/21 04:50:27;;;;;;;;;;;;;;;-143.90;100.00;55035.78;2089208;28;19932;-65
2022/04/21 04:51:48;;;;;;;;;;;;;;;-143.90;100.00;55025.84;2088176;28;19956;-65
2022/04/21 04:53:09;;;;;;;;;;;;;;;-143.90;100.00;55035.78;2085537;28;20466;-64
2022/04/21 04:54:29;;;;;;;;;;;;;;;-143.90;100.00;55007.97;2085732;28;19920;-65
2022/04/21 04:55:50;;;;;;;;;;;;;;;-143.90;100.00;54998.03;2085225;28;19921;-65
2022/04/21 04:57:11;;;;;;;;;;;;;;;-143.90;100.00;55027.81;2088677;28;19924;-64
2022/04/21 04:58:31;;;;;;;;;;;;;;;-143.90;100.00;54996.06;2086469;28;19921;-64
2022/04/21 04:59:52;;;;;;;;;;;;;;;-143.90;100.00;55051.66;2087742;28;19935;-65
2022/04/21 05:01:12;;;;;;;;;;;;;;;-143.90;100.00;55007.97;2086142;28;19917;-65
2022/04/21 05:02:33;;;;;;;;;;;;;;;-143.90;100.00;54988.13;2088677;28;19920;-66
2022/04/21 05:04:06;;;;;;;;;;;;;;;-143.90;100.00;55004.00;2086132;28;19995;-64
2022/04/21 05:05:28;;;;;;;;;;;;;;;-143.90;100.00;55027.81;2088811;28;19925;-64
2022/04/21 05:06:50;;;;;;;;;;;;;;;-143.90;100.00;55025.84;2080814;28;20389;-65
2022/04/21 05:08:10;;;;;;;;;;;;;;;-143.90;100.00;55031.78;2083585;28;19920;-64
2022/04/21 05:09:31;;;;;;;;;;;;;;;-143.90;100.00;54980.19;2087828;28;21957;-65
2022/04/21 05:10:53;;;;;;;;;;;;;;;-143.90;100.00;55007.97;2088730;28;20031;-65
2022/04/21 05:12:14;;;;;;;;;;;;;;;-143.90;100.00;54992.09;2089356;28;19923;-63
2022/04/21 05:13:35;;;;;;;;;;;;;;;-143.90;100.00;55004.00;2087186;28;20043;-65
2022/04/21 05:14:56;;;;;;;;;;;;;;;-143.90;100.00;54998.03;2086960;28;19916;-65
2022/04/21 05:16:17;;;;;;;;;;;;;;;-143.90;100.00;54992.09;2087841;28;19920;-65
2022/04/21 05:17:38;;;;;;;;;;;;;;;-143.90;100.00;55004.00;2088829;28;19924;-65
2022/04/21 05:18:59;;;;;;;;;;;;;;;-143.90;100.00;54976.19;2086958;28;20395;-65
2022/04/21 05:20:20;;;;;;;;;;;;;;;-143.90;100.00;55039.75;2085956;28;19932;-66
2022/04/21 05:21:40;;;;;;;;;;;;;;;-143.90;100.00;55011.94;2088768;28;20308;-65
2022/04/21 05:23:05;;;;;;;;;;;;;;;-143.90;100.00;55015.91;2087497;28;19968;-65
2022/04/21 05:24:25;;;;;;;;;;;;;;;-143.90;100.00;55004.00;2087153;28;19920;-66
2022/04/21 05:25:46;;;;;;;;;;;;;;;-143.90;100.00;54980.19;2089432;28;19948;-67
2022/04/21 05:27:07;;;;;;;;;;;;;;;-143.90;100.00;54996.06;2087946;28;19983;-65
2022/04/21 05:28:28;;;;;;;;;;;;;;;-143.90;100.00;55033.78;2077982;28;19936;-64
2022/04/21 05:31:30;;;;;;;;;;;;;;;-143.90;100.00;54988.13;2086611;28;19924;-66
2022/04/21 05:32:50;;;;;;;;;;;;;;;-143.90;100.00;54972.22;2086694;28;19951;-66
2022/04/21 05:34:12;;;;;;;;;;;;;;;-143.90;100.00;55004.00;2086869;28;19927;-65
2022/04/21 05:35:33;;;;;;;;;;;;;;;-143.90;100.00;54996.06;2087229;28;19927;-63
2022/04/21 05:36:54;;;;;;;;;;;;;;;-143.90;100.00;55007.97;2085432;28;20397;-63
2022/04/21 05:38:16;;;;;;;;;;;;;;;-143.90;100.00;55007.97;2087338;28;19920;-64
2022/04/21 05:39:37;;;;;;;;;;;;;;;-143.90;100.00;55002.00;2088128;28;19916;-63
2022/04/21 05:40:58;;;;;;;;;;;;;;;-143.90;100.00;55015.91;2086809;28;19963;-64
2022/04/21 05:42:25;;;;;;;;;;;;;;;-143.90;100.00;54972.22;2085844;28;19925;-63
2022/04/21 05:43:46;;;;;;;;;;;;;;;-143.90;100.00;54992.09;2088647;28;20059;-63
2022/04/21 05:45:08;;;;;;;;;;;;;;;-143.90;100.00;55025.84;2088041;28;19913;-64
2022/04/21 05:46:29;;;;;;;;;;;;;;;-143.90;100.00;54996.06;2088597;28;19956;-64
2022/04/21 05:47:50;;;;;;;;;;;;;;;-143.90;100.00;55023.84;2090658;28;19921;-63
2022/04/21 05:49:11;;;;;;;;;;;;;;;-143.90;100.00;54964.28;2081677;28;20185;-60
2022/04/21 05:50:32;;;;;;;;;;;;;;;-143.90;100.00;54992.09;2087219;28;20011;-64
2022/04/21 05:51:53;;;;;;;;;;;;;;;-143.90;100.00;54978.19;2087889;28;19970;-63
2022/04/21 05:53:20;;;;;;;;;;;;;;;-143.90;100.00;54960.31;2087303;28;20424;-63
2022/04/21 05:54:40;;;;;;;;;;;;;;;-143.90;100.00;54998.03;2087934;28;20451;-64
2022/04/21 05:56:02;;;;;;;;;;;;;;;-143.90;100.00;54996.06;2090681;28;19928;-64
2022/04/21 05:57:23;;;;;;;;;;;;;;;-143.90;99.46;54998.03;2089355;28;20031;-64
2022/04/21 05:58:44;;;;;;;;;;;;;;;-143.90;97.86;54948.41;2088403;28;20705;-63
2022/04/21 06:00:05;;;;;;;;;;;;;;;-143.90;97.23;54972.22;2090285;28;20501;-64
2022/04/21 06:01:32;;;;;;;;;;;;;;;-143.90;96.62;55017.91;2086924;28;19928;-63
2022/04/21 06:02:53;;;;;;;;;;;;;;;-143.90;97.85;54976.19;2089075;28;19920;-64
2022/04/21 06:04:14;;;;;;;;;;;;;;;-143.90;95.98;54936.50;2087839;28;19921;-63
2022/04/21 06:05:34;;;;;;;;;;;;;;;-143.90;96.61;54984.16;2088599;28;19935;-63
2022/04/21 06:06:55;;;;;;;;;;;;;;;-143.90;97.75;54948.41;2087852;28;20311;-64
2022/04/21 06:08:16;;;;;;;;;;;;;;;-143.90;98.05;54996.06;2081139;28;20759;-62
2022/04/21 06:09:36;;;;;;;;;;;;;;;-143.90;96.32;55007.97;2085968;28;20391;-63
2022/04/21 06:10:57;;;;;;;;;;;;;;;-143.90;97.69;55004.00;2089872;28;20288;-66
2022/04/21 06:12:17;;;;;;;;;;;;;;;-143.90;98.76;54976.19;2089583;28;19933;-64
2022/04/21 06:13:40;;;;;;;;;;;;;;;-143.90;99.94;55007.97;2087801;28;19925;-64
2022/04/21 06:15:01;;;;;;;;;;;;;;;-143.90;100.00;54948.41;2088915;28;19920;-63
2022/04/21 06:16:22;;;;;;;;;;;;;;;-143.90;100.00;55004.00;2090019;28;20418;-64
2022/04/21 06:17:43;;;;;;;;;;;;;;;-143.90;99.90;54940.47;2088863;28;20001;-63
2022/04/21 06:19:04;;;;;;;;;;;;;;;-143.90;99.90;55007.97;2088740;28;19916;-64
2022/04/21 06:20:25;;;;;;;;;;;;;;;-143.90;100.00;54996.06;2089964;28;19928;-63
2022/04/21 06:21:46;;;;;;;;;;;;;;;-143.90;99.59;54968.25;2088398;28;20014;-63
2022/04/21 06:23:06;;;;;;;;;;;;;;;-143.90;94.83;55000.03;2087743;28;19931;-63
2022/04/21 06:24:27;;;;;;;;;;;;;;;-143.90;93.17;54956.34;2088632;28;19916;-64
2022/04/21 06:25:48;;;;;;;;;;;;;;;-143.90;92.80;55011.94;2088590;28;19921;-63
2022/04/21 06:27:09;;;;;;;;;;;;;;;-143.90;91.82;54948.41;2089450;28;20726;-63
2022/04/21 06:28:29;;;;;;;;;;;;;;;-143.90;92.86;54992.09;2088806;28;19920;-64
2022/04/21 06:29:50;;;;;;;;;;;;;;;-143.90;92.83;54956.34;2089429;28;20504;-65
2022/04/21 06:31:11;;;;;;;;;;;;;;;-143.90;92.09;54986.13;2089876;28;19920;-64
2022/04/21 06:32:32;;;;;;;;;;;;;;;-143.90;92.89;54980.19;2090353;28;19921;-65
2022/04/21 06:33:52;;;;;;;;;;;;;;;-143.90;92.22;55013.94;2088330;28;19927;-65
2022/04/21 06:35:13;;;;;;;;;;;;;;;-143.90;91.18;54980.19;2087630;28;19924;-65
2022/04/21 06:36:34;;;;;;;;;;;;;;;-143.90;90.37;54998.03;2080899;28;19921;-64
2022/04/21 06:37:55;;;;;;;;;;;;;;;-143.90;88.00;54944.44;2086485;28;19923;-65
2022/04/21 06:39:15;;;;;;;;;;;;;;;-143.90;85.77;54986.13;2087474;28;20295;-65
2022/04/21 06:40:36;;;;;;;;;;;;;;;-143.90;82.02;54928.56;2087421;28;19928;-64
2022/04/21 06:41:57;;;;;;;;;;;;;;;-143.90;80.58;54964.28;2072265;28;20027;-65
2022/04/21 06:48:16;;;;;;;;;;;;;;;-143.90;78.60;54992.09;2088487;28;20400;-65
2022/04/21 06:49:36;;;;;;;;;;;;;;;-143.90;78.39;54944.44;2086713;28;19931;-65
2022/04/21 06:50:57;;;;;;;;;;;;;;;-143.90;78.91;54970.25;2090918;28;19973;-65
2022/04/21 06:52:17;;;;;;;;;;;;;;;-143.90;78.21;54928.56;2087890;28;20510;-65
2022/04/21 06:53:39;;;;;;;;;;;;;;;-143.90;78.38;54962.31;2087193;28;19931;-65
2022/04/21 06:55:00;;;;;;;;;;;;;;;-143.90;79.22;54960.31;2080954;28;19924;-65
2022/04/21 06:56:20;;;;;;;;;;;;;;;-143.90;78.26;54952.38;2086254;28;19928;-65
2022/04/21 06:57:41;;;;;;;;;;;;;;;-143.90;78.47;54976.19;2087914;28;19929;-66
2022/04/21 06:59:01;;;;;;;;;;;;;;;-143.90;77.91;54960.31;2089495;28;19921;-65
2022/04/21 07:00:23;;;;;;;;;;;;;;;-143.90;78.03;54968.25;2089145;28;19951;-66
2022/04/21 07:01:46;;;;;;;;;;;;;;;-143.90;76.99;54936.50;2090557;28;19925;-65
2022/04/21 07:03:08;;;;;;;;;;;;;;;-143.90;77.30;54920.59;2090970;28;20000;-64
2022/04/21 07:04:29;;;;;;;;;;;;;;;-143.90;75.07;54932.53;2091376;28;19921;-66
2022/04/21 07:05:55;;;;;;;;;;;;;;;-143.90;75.08;54976.19;2087453;28;19920;-65
2022/04/21 07:07:19;;;;;;;;;;;;;;;-143.90;75.46;54960.31;2086941;28;20665;-66
2022/04/21 07:08:39;;;;;;;;;;;;;;;-143.90;75.49;54944.44;2087812;28;20304;-65
2022/04/21 07:10:00;;;;;;;;;;;;;;;-143.90;74.83;54988.13;2087869;28;19920;-65
2022/04/21 07:11:21;;;;;;;;;;;;;;;-143.90;74.86;54920.59;2088333;28;20375;-65
2022/04/21 07:12:42;;;;;;;;;;;;;;;-143.90;72.40;54930.53;2088112;28;20549;-65
2022/04/21 07:14:03;;;;;;;;;;;;;;;-143.90;73.33;54928.56;2088357;28;19987;-65
2022/04/21 07:15:23;;;;;;;;;;;;;;;-143.90;73.27;54962.31;2086862;28;20036;-66
2022/04/21 07:16:44;;;;;;;;;;;;;;;-143.90;72.53;54918.63;2087289;28;19921;-66